Impacts METAR Board
IDs:

KDCA - Washington/National, VA, US

Updated at: 2100 UTC 15 Jun 2019
Potential Impact None Slight Moderate High
Time 15/09Z 15/10Z 15/11Z 15/12Z 15/13Z 15/14Z 15/15Z 15/16Z 15/17Z 15/18Z 15/19Z 15/20Z 15/21Z
Temp62 61 63 64 66 69 75 78 81 83 82 81 82
Dewpt54 53 53 54 54 55 56 56 55 55 51 51 52
Altim30.13 30.14 30.15 30.16 30.17 30.17 30.15 30.13 30.11 30.07 30.05 30.04 30.03
VIS10 10 10 10 10 10 10 10 10 10 10 10 10
CIG-- -- -- 220 190 170 150 140 190 250 250 190 250
CoverFEWSCTSCTBKNBKNBKNBKNBKNBKNBKNBKNBKNBKN
FltCatVFRVFRVFRVFRVFRVFRVFRVFRVFRVFRVFRVFRVFR
WX--------------------------
WDir200210220190200210210210200190210190180
WSpd6 7 6 8 8 6 9 10 13 17 15 12 15
WGst-- -- -- -- -- -- -- -- -- 21 -- 21 21
Raw hourly METARs
KDCA 150852Z 20006KT 10SM FEW250 17/12 A3013 RMK AO2 SLP200 T01670122 56008
KDCA 150952Z 21007KT 10SM FEW120 SCT250 16/12 A3014 RMK AO2 SLP204 T01610117
KDCA 151052Z 22006KT 10SM SCT120 SCT250 17/12 A3015 RMK AO2 SLP209 T01720117
KDCA 151152Z 19008KT 10SM FEW120 BKN220 18/12 A3016 RMK AO2 SLP213 T01780122 10183 20161 53013
KDCA 151252Z 20008KT 10SM FEW130 BKN190 BKN230 19/12 A3017 RMK AO2 SLP215 T01890122
KDCA 151352Z 21006KT 10SM FEW140 BKN170 BKN240 21/13 A3017 RMK AO2 SLP214 T02060128
KDCA 151452Z 21009KT 10SM BKN150 BKN250 24/13 A3015 RMK AO2 SLP208 T02390133 58005
KDCA 151552Z 21010KT 10SM BKN140 BKN250 26/13 A3013 RMK AO2 SLP203 T02560133
KDCA 151652Z 20013KT 10SM SCT140 BKN190 BKN250 27/13 A3011 RMK AO2 SLP195 T02720128
KDCA 151752Z 19017G21KT 10SM SCT140 SCT190 BKN250 28/13 A3007 RMK AO2 SLP183 T02830128 10283 20178 58025
KDCA 151852Z 21015KT 10SM SCT140 SCT190 BKN250 28/11 A3005 RMK AO2 SLP177 T02780106
KDCA 151952Z 19012G21KT 10SM SCT140 BKN190 BKN250 27/11 A3004 RMK AO2 SLP173 T02720106
KDCA 152052Z 18015G21KT 10SM FEW140 SCT190 BKN250 28/11 A3003 RMK AO2 SLP168 T02780111 56015



Page loaded:  21:12 UTC  |   02:12 PM Pacific  |   03:12 PM Mountain  |   04:12 PM Central  |   05:12 PM Eastern

 

ADVISORIES

FORECASTS

FORECASTS

OBSERVATIONS

USER TOOLS

ABOUT US